Darstellungsparameter: Aktuell verwendete Einstellungen:
Skalierung der Graphiken ... ?
xyx+y,   Skalierungsfaktor:      Skalierung: Modus: x, Faktor: 1
Darstellungszeitraum ... ?
Vom - - bis: - -   Zeitraum: 02.11.2018 - 03.11.2018
Min/Max/Avg-Anzeige ... ?
Zeige MMA aktuell
Zeige MMA Monat
Zeige MMA alles
Zeige --A aktuell
Zeige --A Monat
Zeige --A alles
Keine MMA-Anzeige
MMA:
Average (ber die Originaldaten)
MMA-Basis: 02.11.2018 - 03.11.2018
Quicknavigation für Darstellung... ?
Tage:      1T, 2T, 3T, 5T -1T -2T -3T -5T +1T +2T +3T +5T
Wochen: 1W, 2W, 3W -1W -2W -3W +1W +2W +3W
Monate: 1M, 3M, 6M -1M -3M -6M +1M +3M +6M
Jahre:    1J, 3J, 5J, 10J -1J -3J -5J -10J +1J +3J +5J +10J
Nutze für die Darstellung ... ?
Originaldaten oder Mittelwerte auf ...
Stundenbasis Tagesbasis Wochenbasis
Monatsbasis Jahresbasis      Datenbasis: Original-Daten
Darstellen als:
Statistik (Auto) Statistik J:M      Darstellung:
Zur Graphik,    zurück zur Übersicht aller Sensoren.
 
Tabellarische Datenbersicht: ?
 
Sensor: Nr:Datum:Temp:Abs-Feuchte:Windchill:Wind:
Aussen-T/F 1 02-11-2018 00:00:00 9.3 C 8.72 g/m*3 9.3 C 0 km/h
2 02-11-2018 00:05:00 9.3 C 8.72 g/m*3 9.3 C 0 km/h
3 02-11-2018 00:10:00 9.3 C 8.72 g/m*3 9.3 C 1.6 km/h
4 02-11-2018 00:15:00 9.3 C 8.72 g/m*3 9.3 C 0 km/h
5 02-11-2018 00:20:00 9.3 C 8.72 g/m*3 9.3 C 3.2 km/h
6 02-11-2018 00:25:00 9.2 C 8.66 g/m*3 9.2 C 0 km/h
7 02-11-2018 00:30:00 8.9 C 8.41 g/m*3 8.9 C 0 km/h
8 02-11-2018 00:35:00 8.7 C 8.3 g/m*3 8.7 C 1.6 km/h
9 02-11-2018 00:40:00 8.7 C 8.39 g/m*3 8.7 C 0 km/h
10 02-11-2018 00:45:00 8.8 C 8.44 g/m*3 8.8 C 0 km/h
11 02-11-2018 00:50:00 8.9 C 8.5 g/m*3 8.9 C 0 km/h
12 02-11-2018 00:55:00 8.9 C 8.5 g/m*3 8.9 C 0 km/h
13 02-11-2018 01:00:00 9 C 8.55 g/m*3 9 C 0 km/h
14 02-11-2018 01:05:00 9.1 C 8.61 g/m*3 9.1 C 0 km/h
15 02-11-2018 01:10:00 9.1 C 8.61 g/m*3 9.1 C 0 km/h
16 02-11-2018 01:15:00 9.1 C 8.61 g/m*3 9.1 C 1.6 km/h
17 02-11-2018 01:20:00 9.1 C 8.61 g/m*3 9.1 C 0 km/h
18 02-11-2018 01:25:00 9.1 C 8.61 g/m*3 9.1 C 0 km/h
19 02-11-2018 01:30:00 9.1 C 8.61 g/m*3 9.1 C 0 km/h
20 02-11-2018 01:35:00 9.2 C 8.66 g/m*3 9.2 C 0 km/h
21 02-11-2018 01:40:00 9.2 C 8.66 g/m*3 9.2 C 0 km/h
22 02-11-2018 01:45:00 9.2 C 8.66 g/m*3 9.2 C 1.6 km/h
23 02-11-2018 01:50:00 9.2 C 8.66 g/m*3 9.2 C 0 km/h
24 02-11-2018 01:55:00 9.2 C 8.66 g/m*3 9.2 C 0 km/h
25 02-11-2018 02:00:00 9.2 C 8.66 g/m*3 9.2 C 1.6 km/h
Sensor: Nr:Datum:Temp:Abs-Feuchte:Windchill:Wind:
Aussen-T/F 26 02-11-2018 02:05:00 9.3 C 8.72 g/m*3 9.3 C 0 km/h
27 02-11-2018 02:10:00 9.3 C 8.72 g/m*3 9.3 C 1.6 km/h
28 02-11-2018 02:15:00 9.2 C 8.66 g/m*3 9.2 C 0 km/h
29 02-11-2018 02:20:00 9.2 C 8.66 g/m*3 9.2 C 0 km/h
30 02-11-2018 02:25:00 9.2 C 8.66 g/m*3 9.2 C 0 km/h
31 02-11-2018 02:30:00 9.2 C 8.66 g/m*3 9.2 C 0 km/h
32 02-11-2018 02:35:00 9.2 C 8.66 g/m*3 9.2 C 1.6 km/h
33 02-11-2018 02:40:00 9.2 C 8.66 g/m*3 9.2 C 0 km/h
34 02-11-2018 02:45:00 9.2 C 8.66 g/m*3 9.2 C 1.6 km/h
35 02-11-2018 02:50:00 9.2 C 8.66 g/m*3 9.2 C 4.8 km/h
36 02-11-2018 02:55:00 9.3 C 8.72 g/m*3 9.3 C 4.8 km/h
37 02-11-2018 03:00:00 9.3 C 8.72 g/m*3 9.3 C 1.6 km/h
38 02-11-2018 03:05:00 9.3 C 8.72 g/m*3 9.3 C 0 km/h
39 02-11-2018 03:10:00 9.3 C 8.72 g/m*3 9.3 C 0 km/h
40 02-11-2018 03:15:00 9.3 C 8.72 g/m*3 9.3 C 0 km/h
41 02-11-2018 03:20:00 9.2 C 8.66 g/m*3 9.2 C 0 km/h
42 02-11-2018 03:25:00 9.2 C 8.57 g/m*3 9.2 C 0 km/h
43 02-11-2018 03:30:00 9.1 C 8.61 g/m*3 9.1 C 1.6 km/h
44 02-11-2018 03:35:00 9.1 C 8.61 g/m*3 9.1 C 0 km/h
45 02-11-2018 03:40:00 9.1 C 8.61 g/m*3 9.1 C 0 km/h
46 02-11-2018 03:45:00 9.1 C 8.61 g/m*3 9.1 C 0 km/h
47 02-11-2018 03:50:00 9.1 C 8.61 g/m*3 9.1 C 0 km/h
48 02-11-2018 03:55:00 9.1 C 8.61 g/m*3 9.1 C 0 km/h
49 02-11-2018 04:00:00 9.1 C 8.61 g/m*3 9.1 C 0 km/h
50 02-11-2018 04:05:00 9.1 C 8.61 g/m*3 9.1 C 0 km/h
Sensor: Nr:Datum:Temp:Abs-Feuchte:Windchill:Wind:
Aussen-T/F 51 02-11-2018 04:10:00 9.1 C 8.61 g/m*3 9.1 C 0 km/h
52 02-11-2018 04:15:00 9.1 C 8.61 g/m*3 9.1 C 0 km/h
53 02-11-2018 04:20:00 9.1 C 8.61 g/m*3 9.1 C 0 km/h
54 02-11-2018 04:25:00 9.1 C 8.61 g/m*3 9.1 C 0 km/h
55 02-11-2018 04:30:00 9.1 C 8.61 g/m*3 9.1 C 0 km/h
56 02-11-2018 04:35:00 9.1 C 8.61 g/m*3 9.1 C 0 km/h
57 02-11-2018 04:40:00 9.1 C 8.61 g/m*3 9.1 C 0 km/h
58 02-11-2018 04:45:00 9.1 C 8.61 g/m*3 9.1 C 0 km/h
59 02-11-2018 04:50:00 9.1 C 8.61 g/m*3 9.1 C 0 km/h
60 02-11-2018 04:55:00 9.1 C 8.61 g/m*3 9.1 C 0 km/h
61 02-11-2018 05:00:00 9.1 C 8.61 g/m*3 9.1 C 0 km/h
62 02-11-2018 05:05:00 9.1 C 8.61 g/m*3 9.1 C 0 km/h
63 02-11-2018 05:10:00 9.1 C 8.61 g/m*3 9.1 C 0 km/h
64 02-11-2018 05:15:00 9.1 C 8.61 g/m*3 9.1 C 0 km/h
65 02-11-2018 05:20:00 9.1 C 8.61 g/m*3 9.1 C 1.6 km/h
66 02-11-2018 05:25:00 9.1 C 8.61 g/m*3 8.33 C 6.4 km/h
67 02-11-2018 05:30:00 9.1 C 8.61 g/m*3 9.1 C 1.6 km/h
68 02-11-2018 05:35:00 9.1 C 8.61 g/m*3 9.1 C 0 km/h
69 02-11-2018 05:40:00 9.1 C 8.61 g/m*3 9.1 C 0 km/h
70 02-11-2018 05:45:00 9 C 8.55 g/m*3 9 C 0 km/h
71 02-11-2018 05:50:00 9 C 8.55 g/m*3 9 C 0 km/h
72 02-11-2018 05:55:00 8.9 C 8.5 g/m*3 8.9 C 3.2 km/h
73 02-11-2018 06:00:00 9 C 8.55 g/m*3 9 C 4.8 km/h
74 02-11-2018 06:05:00 9 C 8.55 g/m*3 9 C 0 km/h
75 02-11-2018 06:10:00 9 C 8.55 g/m*3 9 C 1.6 km/h
Sensor: Nr:Datum:Temp:Abs-Feuchte:Windchill:Wind:
Aussen-T/F 76 02-11-2018 06:15:00 8.9 C 8.5 g/m*3 8.9 C 0 km/h
77 02-11-2018 06:20:00 8.9 C 8.5 g/m*3 8.9 C 0 km/h
78 02-11-2018 06:25:00 8.9 C 8.5 g/m*3 8.9 C 0 km/h
79 02-11-2018 06:30:00 8.9 C 8.5 g/m*3 8.9 C 0 km/h
80 02-11-2018 06:35:00 8.9 C 8.5 g/m*3 8.9 C 0 km/h
81 02-11-2018 06:40:00 8.9 C 8.5 g/m*3 8.9 C 1.6 km/h
82 02-11-2018 06:45:00 8.9 C 8.5 g/m*3 8.9 C 0 km/h
83 02-11-2018 06:50:00 8.9 C 8.5 g/m*3 8.9 C 0 km/h
84 02-11-2018 06:55:00 8.9 C 8.5 g/m*3 8.9 C 1.6 km/h
85 02-11-2018 07:00:00 8.9 C 8.5 g/m*3 8.9 C 0 km/h
86 02-11-2018 07:05:00 8.9 C 8.41 g/m*3 8.9 C 3.2 km/h
87 02-11-2018 07:10:00 8.9 C 8.41 g/m*3 8.9 C 3.2 km/h
88 02-11-2018 07:15:00 8.8 C 8.36 g/m*3 8.8 C 3.2 km/h
89 02-11-2018 07:20:00 8.8 C 8.36 g/m*3 8.8 C 3.2 km/h
90 02-11-2018 07:25:00 8.7 C 8.3 g/m*3 8.7 C 0 km/h
91 02-11-2018 07:30:00 8.7 C 8.3 g/m*3 8.7 C 0 km/h
92 02-11-2018 07:35:00 8.7 C 8.3 g/m*3 8.7 C 0 km/h
93 02-11-2018 07:40:00 8.7 C 8.3 g/m*3 8.7 C 1.6 km/h
94 02-11-2018 07:45:00 8.7 C 8.3 g/m*3 8.7 C 1.6 km/h
95 02-11-2018 07:50:00 8.7 C 8.3 g/m*3 8.7 C 3.2 km/h
96 02-11-2018 07:55:00 8.8 C 8.36 g/m*3 8.8 C 4.8 km/h
97 02-11-2018 08:00:00 8.8 C 8.36 g/m*3 8.8 C 0 km/h
98 02-11-2018 08:05:00 8.8 C 8.36 g/m*3 8.8 C 0 km/h
99 02-11-2018 08:10:00 8.8 C 8.36 g/m*3 8.8 C 1.6 km/h
100 02-11-2018 08:15:00 8.8 C 8.36 g/m*3 8.8 C 1.6 km/h
Sensor: Nr:Datum:Temp:Abs-Feuchte:Windchill:Wind:
Aussen-T/F 101 02-11-2018 08:20:00 8.7 C 8.3 g/m*3 8.7 C 0 km/h
102 02-11-2018 08:25:00 8.7 C 8.3 g/m*3 8.7 C 0 km/h
103 02-11-2018 08:30:00 8.6 C 8.25 g/m*3 8.6 C 1.6 km/h
104 02-11-2018 08:35:00 8.6 C 8.25 g/m*3 8.6 C 0 km/h
105 02-11-2018 08:40:00 8.6 C 8.25 g/m*3 8.6 C 4.8 km/h
106 02-11-2018 08:45:00 8.6 C 8.25 g/m*3 8.6 C 0 km/h
107 02-11-2018 08:50:00 8.5 C 8.2 g/m*3 8.5 C 0 km/h
108 02-11-2018 08:55:00 8.4 C 8.14 g/m*3 8.4 C 1.6 km/h
109 02-11-2018 09:00:00 8.4 C 8.14 g/m*3 8.4 C 1.6 km/h
110 02-11-2018 09:05:00 8.4 C 8.14 g/m*3 8.4 C 1.6 km/h
111 02-11-2018 09:10:00 8.6 C 8.25 g/m*3 8.6 C 1.6 km/h
112 02-11-2018 09:15:00 8.6 C 8.25 g/m*3 8.6 C 3.2 km/h
113 02-11-2018 09:20:00 8.7 C 8.3 g/m*3 8.7 C 0 km/h
114 02-11-2018 09:25:00 8.7 C 8.3 g/m*3 8.7 C 1.6 km/h
115 02-11-2018 09:30:00 8.8 C 8.36 g/m*3 8.8 C 4.8 km/h
116 02-11-2018 09:35:00 9 C 8.46 g/m*3 9 C 0 km/h
117 02-11-2018 09:40:00 9.2 C 8.57 g/m*3 9.2 C 4.8 km/h
118 02-11-2018 09:45:00 9.3 C 8.72 g/m*3 9.3 C 0 km/h
119 02-11-2018 09:50:00 9.4 C 8.68 g/m*3 9.4 C 0 km/h
120 02-11-2018 09:55:00 9.6 C 8.79 g/m*3 9.6 C 0 km/h
121 02-11-2018 10:00:00 9.7 C 8.85 g/m*3 9.7 C 1.6 km/h
122 02-11-2018 10:05:00 9.7 C 8.85 g/m*3 9.7 C 1.6 km/h
123 02-11-2018 10:10:00 9.8 C 8.91 g/m*3 9.8 C 3.2 km/h
124 02-11-2018 10:15:00 9.9 C 8.87 g/m*3 9.9 C 3.2 km/h
125 02-11-2018 10:20:00 10.1 C 8.89 g/m*3 10.1 C 3.2 km/h
Sensor: Nr:Datum:Temp:Abs-Feuchte:Windchill:Wind:
Aussen-T/F 126 02-11-2018 10:25:00 10.1 C 8.89 g/m*3 10.1 C 3.2 km/h
127 02-11-2018 10:30:00 10.2 C 8.85 g/m*3 10.2 C 1.6 km/h
128 02-11-2018 10:35:00 10.4 C 8.96 g/m*3 10.4 C 0 km/h
129 02-11-2018 10:40:00 10.5 C 8.92 g/m*3 10.5 C 1.6 km/h
130 02-11-2018 10:45:00 10.6 C 8.98 g/m*3 10.6 C 0 km/h
131 02-11-2018 10:50:00 10.7 C 8.94 g/m*3 10.7 C 1.6 km/h
132 02-11-2018 10:55:00 10.7 C 8.84 g/m*3 10.7 C 1.6 km/h
133 02-11-2018 11:00:00 10.8 C 8.8 g/m*3 10.8 C 3.2 km/h
134 02-11-2018 11:05:00 10.9 C 8.85 g/m*3 10.9 C 1.6 km/h
135 02-11-2018 11:10:00 11 C 8.81 g/m*3 11 C 0 km/h
136 02-11-2018 11:15:00 11.1 C 8.86 g/m*3 11.1 C 1.6 km/h
137 02-11-2018 11:20:00 11.2 C 8.92 g/m*3 11.2 C 0 km/h
138 02-11-2018 11:25:00 11.2 C 8.92 g/m*3 11.2 C 1.6 km/h
139 02-11-2018 11:30:00 11.3 C 8.87 g/m*3 11.3 C 0 km/h
140 02-11-2018 11:35:00 11.3 C 8.77 g/m*3 11.3 C 0 km/h
141 02-11-2018 11:40:00 11.4 C 8.93 g/m*3 11.4 C 0 km/h
142 02-11-2018 11:45:00 11.4 C 8.72 g/m*3 11.4 C 0 km/h
143 02-11-2018 11:50:00 11.6 C 8.94 g/m*3 11.6 C 1.6 km/h
144 02-11-2018 11:55:00 11.6 C 8.73 g/m*3 11.6 C 1.6 km/h
145 02-11-2018 12:00:00 11.6 C 8.63 g/m*3 11.6 C 0 km/h
146 02-11-2018 12:05:00 11.6 C 8.63 g/m*3 11.6 C 0 km/h
147 02-11-2018 12:10:00 11.7 C 8.79 g/m*3 11.7 C 0 km/h
148 02-11-2018 12:15:00 11.7 C 8.68 g/m*3 11.7 C 1.6 km/h
149 02-11-2018 12:20:00 11.7 C 8.68 g/m*3 11.7 C 3.2 km/h
150 02-11-2018 12:25:00 11.7 C 8.68 g/m*3 11.7 C 0 km/h
Sensor: Nr:Datum:Temp:Abs-Feuchte:Windchill:Wind:
Aussen-T/F 151 02-11-2018 12:30:00 11.7 C 8.58 g/m*3 11.7 C 1.6 km/h
152 02-11-2018 12:35:00 11.7 C 8.68 g/m*3 11.7 C 4.8 km/h
153 02-11-2018 12:40:00 11.7 C 8.68 g/m*3 11.7 C 6.4 km/h
154 02-11-2018 12:45:00 11.5 C 8.47 g/m*3 11.5 C 6.4 km/h
155 02-11-2018 12:50:00 11.4 C 8.52 g/m*3 11.4 C 4.8 km/h
156 02-11-2018 12:55:00 11.4 C 8.52 g/m*3 11.4 C 1.6 km/h
157 02-11-2018 13:00:00 11.4 C 8.42 g/m*3 11.4 C 0 km/h
158 02-11-2018 13:05:00 11.3 C 8.36 g/m*3 11.3 C 4.8 km/h
159 02-11-2018 13:10:00 11.3 C 8.36 g/m*3 11.3 C 3.2 km/h
160 02-11-2018 13:15:00 11.2 C 8.31 g/m*3 11.2 C 0 km/h
161 02-11-2018 13:20:00 11.2 C 8.41 g/m*3 11.2 C 6.4 km/h
162 02-11-2018 13:25:00 11 C 8.51 g/m*3 10.16 C 8.1 km/h
163 02-11-2018 13:30:00 10.8 C 8.5 g/m*3 10.29 C 6.4 km/h
164 02-11-2018 13:35:00 10.7 C 8.55 g/m*3 10.7 C 0 km/h
165 02-11-2018 13:40:00 10.7 C 8.64 g/m*3 10.7 C 0 km/h
166 02-11-2018 13:45:00 10.6 C 8.69 g/m*3 10.6 C 0 km/h
167 02-11-2018 13:50:00 10.4 C 8.58 g/m*3 10.4 C 0 km/h
168 02-11-2018 13:55:00 10.3 C 8.52 g/m*3 10.3 C 0 km/h
169 02-11-2018 14:00:00 10.2 C 8.56 g/m*3 10.2 C 0 km/h
170 02-11-2018 14:05:00 10.1 C 8.61 g/m*3 10.1 C 0 km/h
171 02-11-2018 14:10:00 10.1 C 8.61 g/m*3 10.1 C 0 km/h
172 02-11-2018 14:15:00 10 C 8.64 g/m*3 10 C 0 km/h
173 02-11-2018 14:20:00 10 C 8.64 g/m*3 10 C 0 km/h
174 02-11-2018 14:25:00 9.9 C 8.59 g/m*3 9.9 C 0 km/h
175 02-11-2018 14:30:00 9.9 C 8.59 g/m*3 9.9 C 0 km/h
Sensor: Nr:Datum:Temp:Abs-Feuchte:Windchill:Wind:
Aussen-T/F 176 02-11-2018 14:35:00 9.8 C 8.54 g/m*3 9.8 C 0 km/h
177 02-11-2018 14:40:00 9.8 C 8.54 g/m*3 9.8 C 0 km/h
178 02-11-2018 14:45:00 9.8 C 8.54 g/m*3 9.8 C 0 km/h
179 02-11-2018 14:50:00 9.7 C 8.57 g/m*3 9.7 C 1.6 km/h
180 02-11-2018 14:55:00 9.6 C 8.52 g/m*3 9.6 C 0 km/h
181 02-11-2018 15:00:00 9.6 C 8.52 g/m*3 9.6 C 0 km/h
182 02-11-2018 15:05:00 9.6 C 8.52 g/m*3 9.6 C 0 km/h
183 02-11-2018 15:10:00 9.6 C 8.52 g/m*3 9.6 C 0 km/h
184 02-11-2018 15:15:00 9.6 C 8.52 g/m*3 9.6 C 0 km/h
185 02-11-2018 15:20:00 9.6 C 8.61 g/m*3 9.6 C 0 km/h
186 02-11-2018 15:25:00 9.7 C 8.67 g/m*3 9.7 C 1.6 km/h
187 02-11-2018 15:30:00 9.7 C 8.67 g/m*3 9.7 C 0 km/h
188 02-11-2018 15:35:00 9.7 C 8.67 g/m*3 9.7 C 0 km/h
189 02-11-2018 15:40:00 9.7 C 8.67 g/m*3 9.7 C 1.6 km/h
190 02-11-2018 15:45:00 9.5 C 8.47 g/m*3 9.5 C 0 km/h
191 02-11-2018 15:50:00 9.4 C 8.5 g/m*3 9.4 C 0 km/h
192 02-11-2018 15:55:00 9.4 C 8.5 g/m*3 9.4 C 0 km/h
193 02-11-2018 16:00:00 9.3 C 8.36 g/m*3 9.3 C 0 km/h
194 02-11-2018 16:05:00 9.2 C 8.3 g/m*3 9.2 C 0 km/h
195 02-11-2018 16:10:00 9.2 C 8.39 g/m*3 9.2 C 0 km/h
196 02-11-2018 16:15:00 9.1 C 8.34 g/m*3 9.1 C 0 km/h
197 02-11-2018 16:20:00 9.1 C 8.34 g/m*3 9.1 C 0 km/h
198 02-11-2018 16:25:00 9 C 8.2 g/m*3 9 C 0 km/h
199 02-11-2018 16:30:00 8.9 C 8.15 g/m*3 8.9 C 0 km/h
200 02-11-2018 16:35:00 8.8 C 8.18 g/m*3 8.8 C 0 km/h
Sensor: Nr:Datum:Temp:Abs-Feuchte:Windchill:Wind:
Aussen-T/F 201 02-11-2018 16:40:00 8.8 C 8.18 g/m*3 8.8 C 1.6 km/h
202 02-11-2018 16:45:00 8.8 C 8.09 g/m*3 8.8 C 1.6 km/h
203 02-11-2018 16:50:00 8.7 C 8.04 g/m*3 8.7 C 0 km/h
204 02-11-2018 16:55:00 8.7 C 8.04 g/m*3 8.7 C 0 km/h
205 02-11-2018 17:00:00 8.7 C 8.04 g/m*3 8.7 C 0 km/h
206 02-11-2018 17:05:00 8.7 C 8.13 g/m*3 8.7 C 0 km/h
207 02-11-2018 17:10:00 8.7 C 8.04 g/m*3 8.7 C 0 km/h
208 02-11-2018 17:15:00 8.7 C 8.04 g/m*3 8.7 C 0 km/h
209 02-11-2018 17:20:00 8.6 C 8.08 g/m*3 8.6 C 0 km/h
210 02-11-2018 17:25:00 8.6 C 8.08 g/m*3 8.6 C 0 km/h
211 02-11-2018 17:30:00 8.5 C 8.03 g/m*3 8.5 C 3.2 km/h
212 02-11-2018 17:35:00 8.5 C 8.03 g/m*3 8.5 C 0 km/h
213 02-11-2018 17:40:00 8.5 C 7.94 g/m*3 8.5 C 3.2 km/h
214 02-11-2018 17:45:00 8.5 C 7.94 g/m*3 8.5 C 3.2 km/h
215 02-11-2018 17:50:00 8.5 C 7.94 g/m*3 8.5 C 0 km/h
216 02-11-2018 17:55:00 8.5 C 7.94 g/m*3 8.5 C 0 km/h
217 02-11-2018 18:00:00 8.5 C 7.94 g/m*3 8.5 C 0 km/h
218 02-11-2018 18:05:00 8.4 C 7.97 g/m*3 8.4 C 0 km/h
219 02-11-2018 18:10:00 8.4 C 7.97 g/m*3 8.4 C 0 km/h
220 02-11-2018 18:15:00 8.4 C 7.97 g/m*3 8.4 C 0 km/h
221 02-11-2018 18:20:00 8.3 C 7.92 g/m*3 8.3 C 1.6 km/h
222 02-11-2018 18:25:00 8.3 C 7.92 g/m*3 8.3 C 0 km/h
223 02-11-2018 18:30:00 8.2 C 7.87 g/m*3 8.2 C 0 km/h
224 02-11-2018 18:35:00 8.2 C 7.87 g/m*3 8.2 C 0 km/h
225 02-11-2018 18:40:00 8.1 C 7.82 g/m*3 8.1 C 0 km/h
Sensor: Nr:Datum:Temp:Abs-Feuchte:Windchill:Wind:
Aussen-T/F 226 02-11-2018 18:45:00 8.1 C 7.82 g/m*3 8.1 C 1.6 km/h
227 02-11-2018 18:50:00 8.1 C 7.82 g/m*3 8.1 C 0 km/h
228 02-11-2018 18:55:00 8 C 7.77 g/m*3 8 C 0 km/h
229 02-11-2018 19:00:00 7.9 C 7.72 g/m*3 7.9 C 0 km/h
230 02-11-2018 19:05:00 7.9 C 7.8 g/m*3 7.9 C 1.6 km/h
231 02-11-2018 19:10:00 7.8 C 7.67 g/m*3 7.8 C 0 km/h
232 02-11-2018 19:15:00 7.8 C 7.67 g/m*3 7.8 C 0 km/h
233 02-11-2018 19:20:00 7.8 C 7.75 g/m*3 7.8 C 0 km/h
234 02-11-2018 19:25:00 7.7 C 7.7 g/m*3 7.7 C 0 km/h
235 02-11-2018 19:30:00 7.7 C 7.7 g/m*3 7.7 C 1.6 km/h
236 02-11-2018 19:35:00 7.7 C 7.7 g/m*3 7.7 C 0 km/h
237 02-11-2018 19:40:00 7.6 C 7.65 g/m*3 7.6 C 0 km/h
238 02-11-2018 19:45:00 7.5 C 7.6 g/m*3 7.5 C 0 km/h
239 02-11-2018 19:50:00 7.4 C 7.55 g/m*3 7.4 C 0 km/h
240 02-11-2018 19:55:00 7.4 C 7.55 g/m*3 7.4 C 0 km/h
241 02-11-2018 20:00:00 7.3 C 7.51 g/m*3 7.3 C 0 km/h
242 02-11-2018 20:05:00 7.3 C 7.51 g/m*3 7.3 C 0 km/h
243 02-11-2018 20:10:00 7.2 C 7.46 g/m*3 7.2 C 0 km/h
244 02-11-2018 20:15:00 7.2 C 7.46 g/m*3 7.2 C 0 km/h
245 02-11-2018 20:20:00 7.2 C 7.46 g/m*3 7.2 C 0 km/h
246 02-11-2018 20:25:00 7.1 C 7.41 g/m*3 7.1 C 0 km/h
247 02-11-2018 20:30:00 7.1 C 7.41 g/m*3 7.1 C 0 km/h
248 02-11-2018 20:35:00 7.1 C 7.41 g/m*3 7.1 C 0 km/h
249 02-11-2018 20:40:00 7.1 C 7.41 g/m*3 7.1 C 0 km/h
250 02-11-2018 20:45:00 7.1 C 7.41 g/m*3 7.1 C 0 km/h
Sensor: Nr:Datum:Temp:Abs-Feuchte:Windchill:Wind:
Aussen-T/F 251 02-11-2018 20:50:00 7 C 7.36 g/m*3 7 C 0 km/h
252 02-11-2018 20:55:00 7 C 7.36 g/m*3 7 C 0 km/h
253 02-11-2018 21:00:00 7 C 7.36 g/m*3 7 C 0 km/h
254 02-11-2018 21:05:00 7 C 7.36 g/m*3 7 C 0 km/h
255 02-11-2018 21:10:00 7 C 7.36 g/m*3 7 C 0 km/h
256 02-11-2018 21:15:00 7 C 7.36 g/m*3 7 C 0 km/h
257 02-11-2018 21:20:00 7 C 7.36 g/m*3 7 C 0 km/h
258 02-11-2018 21:25:00 7 C 7.36 g/m*3 7 C 0 km/h
259 02-11-2018 21:30:00 7 C 7.36 g/m*3 7 C 0 km/h
260 02-11-2018 21:35:00 7 C 7.36 g/m*3 7 C 0 km/h
261 02-11-2018 21:40:00 7 C 7.36 g/m*3 7 C 1.6 km/h
262 02-11-2018 21:45:00 7 C 7.44 g/m*3 7 C 0 km/h
263 02-11-2018 21:50:00 7 C 7.44 g/m*3 7 C 0 km/h
264 02-11-2018 21:55:00 7 C 7.44 g/m*3 7 C 0 km/h
265 02-11-2018 22:00:00 7 C 7.44 g/m*3 7 C 0 km/h
266 02-11-2018 22:05:00 6.9 C 7.31 g/m*3 6.9 C 0 km/h
267 02-11-2018 22:10:00 6.8 C 7.27 g/m*3 6.8 C 0 km/h
268 02-11-2018 22:15:00 6.7 C 7.22 g/m*3 6.7 C 0 km/h
269 02-11-2018 22:20:00 6.5 C 7.12 g/m*3 6.5 C 0 km/h
270 02-11-2018 22:25:00 6.3 C 7.03 g/m*3 6.3 C 0 km/h
271 02-11-2018 22:30:00 6.3 C 7.03 g/m*3 6.3 C 0 km/h
272 02-11-2018 22:35:00 6.2 C 6.99 g/m*3 6.2 C 0 km/h
273 02-11-2018 22:40:00 6.1 C 6.94 g/m*3 6.1 C 0 km/h
274 02-11-2018 22:45:00 5.9 C 6.85 g/m*3 5.9 C 0 km/h
275 02-11-2018 22:50:00 5.8 C 6.81 g/m*3 5.8 C 0 km/h
Sensor: Nr:Datum:Temp:Abs-Feuchte:Windchill:Wind:
Aussen-T/F 276 02-11-2018 22:55:00 5.7 C 6.76 g/m*3 5.7 C 0 km/h
277 02-11-2018 23:00:00 5.6 C 6.72 g/m*3 5.6 C 0 km/h
278 02-11-2018 23:05:00 5.6 C 6.72 g/m*3 5.6 C 0 km/h
279 02-11-2018 23:10:00 5.6 C 6.72 g/m*3 5.6 C 0 km/h
280 02-11-2018 23:15:00 5.6 C 6.72 g/m*3 5.6 C 0 km/h
281 02-11-2018 23:20:00 5.4 C 6.63 g/m*3 5.4 C 0 km/h
282 02-11-2018 23:25:00 5.4 C 6.63 g/m*3 5.4 C 0 km/h
283 02-11-2018 23:30:00 5.3 C 6.58 g/m*3 5.3 C 0 km/h
284 02-11-2018 23:35:00 5.2 C 6.54 g/m*3 5.2 C 0 km/h
285 02-11-2018 23:40:00 5.1 C 6.5 g/m*3 5.1 C 0 km/h
286 02-11-2018 23:45:00 5.1 C 6.57 g/m*3 5.1 C 1.6 km/h
287 02-11-2018 23:50:00 5.1 C 6.57 g/m*3 5.1 C 0 km/h
288 02-11-2018 23:55:00 5.1 C 6.5 g/m*3 5.1 C 0 km/h
289 03-11-2018 00:00:00 4.9 C 6.41 g/m*3 4.9 C 0 km/h
290 03-11-2018 00:05:00 4.9 C 6.41 g/m*3 4.9 C 0 km/h
291 03-11-2018 00:10:00 4.8 C 6.37 g/m*3 4.8 C 0 km/h
292 03-11-2018 00:15:00 4.7 C 6.33 g/m*3 4.7 C 0 km/h
293 03-11-2018 00:20:00 4.6 C 6.29 g/m*3 4.6 C 0 km/h
294 03-11-2018 00:25:00 4.4 C 6.2 g/m*3 4.4 C 0 km/h
295 03-11-2018 00:30:00 4.3 C 6.16 g/m*3 4.3 C 0 km/h
296 03-11-2018 00:35:00 4.3 C 6.16 g/m*3 4.3 C 0 km/h
297 03-11-2018 00:40:00 4.1 C 6.08 g/m*3 4.1 C 0 km/h
298 03-11-2018 00:45:00 4 C 6.04 g/m*3 4 C 0 km/h
299 03-11-2018 00:50:00 3.9 C 6 g/m*3 3.9 C 0 km/h
300 03-11-2018 00:55:00 3.9 C 6.06 g/m*3 3.9 C 0 km/h
Sensor: Nr:Datum:Temp:Abs-Feuchte:Windchill:Wind:
Aussen-T/F 301 03-11-2018 01:00:00 3.8 C 6.02 g/m*3 3.8 C 0 km/h
302 03-11-2018 01:05:00 3.7 C 5.92 g/m*3 3.7 C 0 km/h
303 03-11-2018 01:10:00 3.6 C 5.88 g/m*3 3.6 C 0 km/h
304 03-11-2018 01:15:00 3.5 C 5.84 g/m*3 3.5 C 0 km/h
305 03-11-2018 01:20:00 3.4 C 5.8 g/m*3 3.4 C 0 km/h
306 03-11-2018 01:25:00 3.3 C 5.76 g/m*3 3.3 C 0 km/h
307 03-11-2018 01:30:00 3.2 C 5.72 g/m*3 3.2 C 0 km/h
308 03-11-2018 01:35:00 3.2 C 5.79 g/m*3 3.2 C 0 km/h
309 03-11-2018 01:40:00 3.2 C 5.79 g/m*3 3.2 C 0 km/h
310 03-11-2018 01:45:00 3.2 C 5.72 g/m*3 3.2 C 0 km/h
311 03-11-2018 01:50:00 3.1 C 5.75 g/m*3 3.1 C 0 km/h
312 03-11-2018 01:55:00 3.1 C 5.75 g/m*3 3.1 C 0 km/h
313 03-11-2018 02:00:00 3.1 C 5.75 g/m*3 3.1 C 0 km/h
314 03-11-2018 02:05:00 3.1 C 5.75 g/m*3 3.1 C 0 km/h
315 03-11-2018 02:10:00 3.1 C 5.75 g/m*3 3.1 C 0 km/h
316 03-11-2018 02:15:00 3 C 5.71 g/m*3 3 C 0 km/h
317 03-11-2018 02:20:00 2.9 C 5.67 g/m*3 2.9 C 0 km/h
318 03-11-2018 02:25:00 2.8 C 5.63 g/m*3 2.8 C 0 km/h
319 03-11-2018 02:30:00 2.8 C 5.57 g/m*3 2.8 C 0 km/h
320 03-11-2018 02:35:00 2.6 C 5.56 g/m*3 2.6 C 0 km/h
321 03-11-2018 02:40:00 2.5 C 5.52 g/m*3 2.5 C 0 km/h
322 03-11-2018 02:45:00 2.4 C 5.42 g/m*3 2.4 C 0 km/h
323 03-11-2018 02:50:00 2.4 C 5.48 g/m*3 2.4 C 0 km/h
324 03-11-2018 02:55:00 2.4 C 5.48 g/m*3 2.4 C 0 km/h
325 03-11-2018 03:00:00 2.4 C 5.48 g/m*3 2.4 C 0 km/h
Sensor: Nr:Datum:Temp:Abs-Feuchte:Windchill:Wind:
Aussen-T/F 326 03-11-2018 03:05:00 2.4 C 5.48 g/m*3 2.4 C 0 km/h
327 03-11-2018 03:10:00 2.3 C 5.44 g/m*3 2.3 C 0 km/h
328 03-11-2018 03:15:00 2.3 C 5.44 g/m*3 2.3 C 0 km/h
329 03-11-2018 03:20:00 2.2 C 5.41 g/m*3 2.2 C 0 km/h
330 03-11-2018 03:25:00 2.2 C 5.41 g/m*3 2.2 C 0 km/h
331 03-11-2018 03:30:00 2.2 C 5.41 g/m*3 2.2 C 0 km/h
332 03-11-2018 03:35:00 2.3 C 5.44 g/m*3 2.3 C 1.6 km/h
333 03-11-2018 03:40:00 2.3 C 5.44 g/m*3 2.3 C 0 km/h
334 03-11-2018 03:45:00 2.4 C 5.48 g/m*3 2.4 C 0 km/h
335 03-11-2018 03:50:00 2.4 C 5.48 g/m*3 2.4 C 0 km/h
336 03-11-2018 03:55:00 2.5 C 5.52 g/m*3 2.5 C 0 km/h
337 03-11-2018 04:00:00 2.6 C 5.56 g/m*3 2.6 C 1.6 km/h
338 03-11-2018 04:05:00 2.7 C 5.59 g/m*3 2.7 C 0 km/h
339 03-11-2018 04:10:00 2.7 C 5.59 g/m*3 2.7 C 0 km/h
340 03-11-2018 04:15:00 2.7 C 5.59 g/m*3 2.7 C 0 km/h
341 03-11-2018 04:20:00 2.7 C 5.59 g/m*3 2.7 C 0 km/h
342 03-11-2018 04:25:00 2.7 C 5.59 g/m*3 2.7 C 0 km/h
343 03-11-2018 04:30:00 2.7 C 5.59 g/m*3 2.7 C 0 km/h
344 03-11-2018 04:35:00 2.7 C 5.59 g/m*3 2.7 C 0 km/h
345 03-11-2018 04:40:00 2.7 C 5.59 g/m*3 2.7 C 0 km/h
346 03-11-2018 04:45:00 2.8 C 5.69 g/m*3 2.8 C 0 km/h
347 03-11-2018 04:50:00 2.8 C 5.69 g/m*3 2.8 C 0 km/h
348 03-11-2018 04:55:00 2.8 C 5.69 g/m*3 2.8 C 0 km/h
349 03-11-2018 05:00:00 2.8 C 5.69 g/m*3 2.8 C 0 km/h
350 03-11-2018 05:05:00 2.8 C 5.69 g/m*3 2.8 C 0 km/h
Sensor: Nr:Datum:Temp:Abs-Feuchte:Windchill:Wind:
Aussen-T/F 351 03-11-2018 05:10:00 2.7 C 5.59 g/m*3 2.7 C 0 km/h
352 03-11-2018 05:15:00 2.7 C 5.59 g/m*3 2.7 C 0 km/h
353 03-11-2018 05:20:00 2.6 C 5.56 g/m*3 2.6 C 0 km/h
354 03-11-2018 05:25:00 2.6 C 5.56 g/m*3 2.6 C 0 km/h
355 03-11-2018 05:30:00 2.6 C 5.56 g/m*3 2.6 C 0 km/h
356 03-11-2018 05:35:00 2.7 C 5.59 g/m*3 2.7 C 0 km/h
357 03-11-2018 05:40:00 2.7 C 5.59 g/m*3 2.7 C 0 km/h
358 03-11-2018 05:45:00 2.7 C 5.59 g/m*3 2.7 C 0 km/h
359 03-11-2018 05:50:00 2.7 C 5.59 g/m*3 2.7 C 0 km/h
360 03-11-2018 05:55:00 2.7 C 5.59 g/m*3 2.7 C 0 km/h
361 03-11-2018 06:00:00 2.7 C 5.59 g/m*3 2.7 C 0 km/h
362 03-11-2018 06:05:00 2.7 C 5.59 g/m*3 2.7 C 0 km/h
363 03-11-2018 06:10:00 2.7 C 5.59 g/m*3 2.7 C 0 km/h
364 03-11-2018 06:15:00 2.7 C 5.59 g/m*3 2.7 C 0 km/h
365 03-11-2018 06:20:00 2.8 C 5.69 g/m*3 2.8 C 0 km/h
366 03-11-2018 06:25:00 2.8 C 5.63 g/m*3 2.8 C 0 km/h
367 03-11-2018 06:30:00 2.8 C 5.63 g/m*3 2.8 C 0 km/h
368 03-11-2018 06:35:00 2.9 C 5.73 g/m*3 2.9 C 0 km/h
369 03-11-2018 06:40:00 2.9 C 5.73 g/m*3 2.9 C 4.8 km/h
370 03-11-2018 06:45:00 2.9 C 5.73 g/m*3 2.9 C 1.6 km/h
371 03-11-2018 06:50:00 2.9 C 5.73 g/m*3 2.9 C 1.6 km/h
372 03-11-2018 06:55:00 2.9 C 5.73 g/m*3 2.9 C 4.8 km/h
373 03-11-2018 07:00:00 2.8 C 5.69 g/m*3 2.8 C 3.2 km/h
374 03-11-2018 07:05:00 2.8 C 5.69 g/m*3 2.8 C 1.6 km/h
375 03-11-2018 07:10:00 2.8 C 5.63 g/m*3 2.8 C 1.6 km/h
Sensor: Nr:Datum:Temp:Abs-Feuchte:Windchill:Wind:
Aussen-T/F 376 03-11-2018 07:15:00 2.8 C 5.69 g/m*3 2.8 C 3.2 km/h
377 03-11-2018 07:20:00 2.8 C 5.69 g/m*3 2.8 C 0 km/h
378 03-11-2018 07:25:00 2.8 C 5.69 g/m*3 2.8 C 1.6 km/h
379 03-11-2018 07:30:00 2.8 C 5.69 g/m*3 2.8 C 1.6 km/h
380 03-11-2018 07:35:00 2.8 C 5.69 g/m*3 2.8 C 3.2 km/h
381 03-11-2018 07:40:00 2.8 C 5.69 g/m*3 2.8 C 3.2 km/h
382 03-11-2018 07:45:00 2.8 C 5.69 g/m*3 2.8 C 0 km/h
383 03-11-2018 07:50:00 2.8 C 5.69 g/m*3 2.8 C 1.6 km/h
384 03-11-2018 07:55:00 2.8 C 5.69 g/m*3 2.8 C 0 km/h
385 03-11-2018 08:00:00 2.9 C 5.73 g/m*3 2.9 C 0 km/h
386 03-11-2018 08:05:00 2.9 C 5.73 g/m*3 2.9 C 0 km/h
387 03-11-2018 08:10:00 2.9 C 5.73 g/m*3 2.9 C 3.2 km/h
388 03-11-2018 08:15:00 2.9 C 5.73 g/m*3 2.9 C 0 km/h
389 03-11-2018 08:20:00 3 C 5.77 g/m*3 3 C 0 km/h
390 03-11-2018 08:25:00 3.1 C 5.81 g/m*3 3.1 C 0 km/h
391 03-11-2018 08:30:00 3.1 C 5.81 g/m*3 3.1 C 1.6 km/h
392 03-11-2018 08:35:00 3.1 C 5.81 g/m*3 3.1 C 0 km/h
393 03-11-2018 08:40:00 3.1 C 5.81 g/m*3 3.1 C 0 km/h
394 03-11-2018 08:45:00 3.1 C 5.81 g/m*3 3.1 C 0 km/h
395 03-11-2018 08:50:00 3.2 C 5.85 g/m*3 3.2 C 1.6 km/h
396 03-11-2018 08:55:00 3.2 C 5.85 g/m*3 3.2 C 1.6 km/h
397 03-11-2018 09:00:00 3.2 C 5.85 g/m*3 3.2 C 1.6 km/h
398 03-11-2018 09:05:00 3.2 C 5.85 g/m*3 3.2 C 1.6 km/h
399 03-11-2018 09:10:00 3.2 C 5.85 g/m*3 3.2 C 0 km/h
400 03-11-2018 09:15:00 3.2 C 5.85 g/m*3 3.2 C 0 km/h
Sensor: Nr:Datum:Temp:Abs-Feuchte:Windchill:Wind:
Aussen-T/F 401 03-11-2018 09:20:00 3.2 C 5.85 g/m*3 3.2 C 3.2 km/h
402 03-11-2018 09:25:00 3.2 C 5.85 g/m*3 3.2 C 3.2 km/h
403 03-11-2018 09:30:00 3.2 C 5.85 g/m*3 3.2 C 3.2 km/h
404 03-11-2018 09:35:00 3.3 C 5.88 g/m*3 3.3 C 3.2 km/h
405 03-11-2018 09:40:00 3.3 C 5.88 g/m*3 3.3 C 1.6 km/h
406 03-11-2018 09:45:00 3.3 C 5.88 g/m*3 3.3 C 0 km/h
407 03-11-2018 09:50:00 3.4 C 5.92 g/m*3 3.4 C 0 km/h
408 03-11-2018 09:55:00 3.4 C 5.92 g/m*3 3.4 C 0 km/h
409 03-11-2018 10:00:00 3.4 C 5.92 g/m*3 3.4 C 3.2 km/h
410 03-11-2018 10:05:00 3.4 C 5.92 g/m*3 3.4 C 1.6 km/h
411 03-11-2018 10:10:00 3.5 C 5.96 g/m*3 3.5 C 1.6 km/h
412 03-11-2018 10:15:00 3.6 C 6 g/m*3 3.6 C 3.2 km/h
413 03-11-2018 10:20:00 3.6 C 6 g/m*3 3.6 C 1.6 km/h
414 03-11-2018 10:25:00 3.6 C 6 g/m*3 3.6 C 0 km/h
415 03-11-2018 10:30:00 3.7 C 6.04 g/m*3 3.7 C 0 km/h
416 03-11-2018 10:35:00 3.7 C 6.04 g/m*3 3.7 C 1.6 km/h
417 03-11-2018 10:40:00 3.8 C 6.09 g/m*3 3.8 C 0 km/h
418 03-11-2018 10:45:00 3.8 C 6.09 g/m*3 3.8 C 1.6 km/h
419 03-11-2018 10:50:00 3.9 C 6.13 g/m*3 3.9 C 0 km/h
420 03-11-2018 10:55:00 3.9 C 6.13 g/m*3 3.9 C 1.6 km/h
421 03-11-2018 11:00:00 3.8 C 6.09 g/m*3 3.8 C 0 km/h
422 03-11-2018 11:05:00 3.8 C 6.09 g/m*3 3.8 C 1.6 km/h
423 03-11-2018 11:10:00 3.9 C 6.13 g/m*3 3.9 C 0 km/h
424 03-11-2018 11:15:00 3.9 C 6.13 g/m*3 3.9 C 3.2 km/h
425 03-11-2018 11:20:00 3.9 C 6.13 g/m*3 3.9 C 3.2 km/h
Sensor: Nr:Datum:Temp:Abs-Feuchte:Windchill:Wind:
Aussen-T/F 426 03-11-2018 11:25:00 3.9 C 6.13 g/m*3 3.9 C 0 km/h
427 03-11-2018 11:30:00 3.9 C 6.13 g/m*3 3.9 C 3.2 km/h
428 03-11-2018 11:35:00 4 C 6.17 g/m*3 4 C 3.2 km/h
429 03-11-2018 11:40:00 4 C 6.17 g/m*3 4 C 0 km/h
430 03-11-2018 11:45:00 4.1 C 6.21 g/m*3 4.1 C 0 km/h
431 03-11-2018 11:50:00 4.1 C 6.21 g/m*3 4.1 C 0 km/h
432 03-11-2018 11:55:00 4.2 C 6.25 g/m*3 4.2 C 4.8 km/h
433 03-11-2018 12:00:00 4.2 C 6.25 g/m*3 4.2 C 4.8 km/h
434 03-11-2018 12:05:00 4.2 C 6.25 g/m*3 4.2 C 0 km/h
435 03-11-2018 12:10:00 4.3 C 6.29 g/m*3 4.3 C 0 km/h
436 03-11-2018 12:15:00 4.3 C 6.29 g/m*3 4.3 C 0 km/h
437 03-11-2018 12:20:00 4.4 C 6.33 g/m*3 4.4 C 0 km/h
438 03-11-2018 12:25:00 4.6 C 6.42 g/m*3 4.6 C 3.2 km/h
439 03-11-2018 12:30:00 4.6 C 6.42 g/m*3 4.6 C 0 km/h
440 03-11-2018 12:35:00 4.7 C 6.46 g/m*3 4.7 C 3.2 km/h
441 03-11-2018 12:40:00 4.7 C 6.46 g/m*3 4.7 C 3.2 km/h
442 03-11-2018 12:45:00 4.7 C 6.46 g/m*3 4.7 C 0 km/h
443 03-11-2018 12:50:00 4.7 C 6.46 g/m*3 4.7 C 1.6 km/h
444 03-11-2018 12:55:00 4.8 C 6.5 g/m*3 4.8 C 0 km/h
445 03-11-2018 13:00:00 4.8 C 6.5 g/m*3 4.8 C 1.6 km/h
446 03-11-2018 13:05:00 4.8 C 6.5 g/m*3 4.8 C 1.6 km/h
447 03-11-2018 13:10:00 4.8 C 6.5 g/m*3 4.8 C 3.2 km/h
448 03-11-2018 13:15:00 4.9 C 6.55 g/m*3 4.9 C 1.6 km/h
449 03-11-2018 13:20:00 4.9 C 6.55 g/m*3 4.9 C 1.6 km/h
450 03-11-2018 13:25:00 4.8 C 6.5 g/m*3 4.8 C 1.6 km/h
Sensor: Nr:Datum:Temp:Abs-Feuchte:Windchill:Wind:
Aussen-T/F 451 03-11-2018 13:30:00 4.8 C 6.5 g/m*3 4.8 C 0 km/h
452 03-11-2018 13:35:00 4.9 C 6.55 g/m*3 4.9 C 0 km/h
453 03-11-2018 13:40:00 5.1 C 6.63 g/m*3 5.1 C 0 km/h
454 03-11-2018 13:45:00 5.1 C 6.63 g/m*3 5.1 C 0 km/h
455 03-11-2018 13:50:00 5.2 C 6.68 g/m*3 5.2 C 0 km/h
456 03-11-2018 13:55:00 5.3 C 6.72 g/m*3 5.3 C 0 km/h
457 03-11-2018 14:00:00 5.3 C 6.72 g/m*3 5.3 C 4.8 km/h
458 03-11-2018 14:05:00 5.3 C 6.72 g/m*3 5.3 C 3.2 km/h
459 03-11-2018 14:10:00 5.3 C 6.72 g/m*3 5.3 C 1.6 km/h
460 03-11-2018 14:15:00 5.3 C 6.72 g/m*3 5.3 C 4.8 km/h
461 03-11-2018 14:20:00 5.2 C 6.68 g/m*3 5.2 C 4.8 km/h
462 03-11-2018 14:25:00 5.2 C 6.68 g/m*3 5.2 C 1.6 km/h
463 03-11-2018 14:30:00 5.3 C 6.72 g/m*3 5.3 C 3.2 km/h
464 03-11-2018 14:35:00 5.3 C 6.72 g/m*3 5.3 C 3.2 km/h
465 03-11-2018 14:40:00 5.3 C 6.72 g/m*3 5.3 C 1.6 km/h
466 03-11-2018 14:45:00 5.3 C 6.72 g/m*3 5.3 C 4.8 km/h
467 03-11-2018 14:50:00 5.3 C 6.72 g/m*3 3.94 C 6.4 km/h
468 03-11-2018 14:55:00 5.3 C 6.72 g/m*3 5.3 C 4.8 km/h
469 03-11-2018 15:00:00 5.2 C 6.68 g/m*3 3.82 C 6.4 km/h
470 03-11-2018 15:05:00 5.1 C 6.63 g/m*3 5.1 C 1.6 km/h
471 03-11-2018 15:10:00 5.1 C 6.63 g/m*3 5.1 C 3.2 km/h
472 03-11-2018 15:15:00 5.1 C 6.63 g/m*3 5.1 C 3.2 km/h
473 03-11-2018 15:20:00 5.1 C 6.63 g/m*3 5.1 C 1.6 km/h
474 03-11-2018 15:25:00 5.1 C 6.63 g/m*3 5.1 C 1.6 km/h
475 03-11-2018 15:30:00 5.1 C 6.63 g/m*3 5.1 C 1.6 km/h
Sensor: Nr:Datum:Temp:Abs-Feuchte:Windchill:Wind:
Aussen-T/F 476 03-11-2018 15:35:00 5 C 6.59 g/m*3 5 C 1.6 km/h
477 03-11-2018 15:40:00 5.1 C 6.63 g/m*3 5.1 C 0 km/h
478 03-11-2018 15:45:00 5.1 C 6.63 g/m*3 5.1 C 1.6 km/h
479 03-11-2018 15:50:00 5.1 C 6.57 g/m*3 5.1 C 0 km/h
480 03-11-2018 15:55:00 5 C 6.52 g/m*3 5 C 0 km/h
481 03-11-2018 16:00:00 5 C 6.59 g/m*3 5 C 0 km/h
482 03-11-2018 16:05:00 5 C 6.59 g/m*3 5 C 0 km/h
483 03-11-2018 16:10:00 4.9 C 6.48 g/m*3 4.9 C 0 km/h
484 03-11-2018 16:15:00 4.9 C 6.48 g/m*3 4.9 C 0 km/h
485 03-11-2018 16:20:00 4.8 C 6.44 g/m*3 4.8 C 0 km/h
486 03-11-2018 16:25:00 4.8 C 6.44 g/m*3 4.8 C 0 km/h
487 03-11-2018 16:30:00 4.8 C 6.44 g/m*3 4.8 C 0 km/h
488 03-11-2018 16:35:00 4.8 C 6.44 g/m*3 4.8 C 0 km/h
489 03-11-2018 16:40:00 4.8 C 6.44 g/m*3 4.8 C 0 km/h
490 03-11-2018 16:45:00 4.8 C 6.44 g/m*3 4.8 C 0 km/h
491 03-11-2018 16:50:00 4.7 C 6.39 g/m*3 4.7 C 0 km/h
492 03-11-2018 16:55:00 4.7 C 6.39 g/m*3 4.7 C 0 km/h
493 03-11-2018 17:00:00 4.7 C 6.39 g/m*3 4.7 C 0 km/h
494 03-11-2018 17:05:00 4.6 C 6.35 g/m*3 4.6 C 0 km/h
495 03-11-2018 17:10:00 4.6 C 6.35 g/m*3 4.6 C 0 km/h
496 03-11-2018 17:15:00 4.5 C 6.31 g/m*3 4.5 C 0 km/h
497 03-11-2018 17:20:00 4.4 C 6.27 g/m*3 4.4 C 0 km/h
498 03-11-2018 17:25:00 4.3 C 6.23 g/m*3 4.3 C 0 km/h
499 03-11-2018 17:30:00 4.3 C 6.23 g/m*3 4.3 C 0 km/h
500 03-11-2018 17:35:00 4.2 C 6.19 g/m*3 4.2 C 0 km/h
Sensor: Nr:Datum:Temp:Abs-Feuchte:Windchill:Wind:
Aussen-T/F 501 03-11-2018 17:40:00 4.1 C 6.14 g/m*3 4.1 C 0 km/h
502 03-11-2018 17:45:00 4.1 C 6.14 g/m*3 4.1 C 0 km/h
503 03-11-2018 17:50:00 3.9 C 6.06 g/m*3 3.9 C 0 km/h
504 03-11-2018 17:55:00 3.9 C 6.06 g/m*3 3.9 C 0 km/h
505 03-11-2018 18:00:00 3.8 C 6.02 g/m*3 3.8 C 0 km/h
506 03-11-2018 18:05:00 3.9 C 6.06 g/m*3 3.9 C 0 km/h
507 03-11-2018 18:10:00 3.8 C 6.02 g/m*3 3.8 C 0 km/h
508 03-11-2018 18:15:00 3.8 C 6.02 g/m*3 3.8 C 0 km/h
509 03-11-2018 18:20:00 3.8 C 6.02 g/m*3 3.8 C 0 km/h
510 03-11-2018 18:25:00 3.8 C 6.02 g/m*3 3.8 C 0 km/h
511 03-11-2018 18:30:00 3.8 C 6.02 g/m*3 3.8 C 0 km/h
512 03-11-2018 18:35:00 3.7 C 5.98 g/m*3 3.7 C 0 km/h
513 03-11-2018 18:40:00 3.6 C 5.94 g/m*3 3.6 C 0 km/h
514 03-11-2018 18:45:00 3.5 C 5.9 g/m*3 3.5 C 0 km/h
515 03-11-2018 18:50:00 3.3 C 5.82 g/m*3 3.3 C 0 km/h
516 03-11-2018 18:55:00 3.2 C 5.79 g/m*3 3.2 C 0 km/h
517 03-11-2018 19:00:00 3.1 C 5.75 g/m*3 3.1 C 0 km/h
518 03-11-2018 19:05:00 3 C 5.71 g/m*3 3 C 0 km/h
519 03-11-2018 19:10:00 3 C 5.71 g/m*3 3 C 0 km/h
520 03-11-2018 19:15:00 2.9 C 5.67 g/m*3 2.9 C 0 km/h
521 03-11-2018 19:20:00 2.9 C 5.67 g/m*3 2.9 C 0 km/h
522 03-11-2018 19:25:00 2.8 C 5.63 g/m*3 2.8 C 0 km/h
523 03-11-2018 19:30:00 2.7 C 5.59 g/m*3 2.7 C 0 km/h
524 03-11-2018 19:35:00 2.7 C 5.59 g/m*3 2.7 C 0 km/h
525 03-11-2018 19:40:00 2.7 C 5.59 g/m*3 2.7 C 0 km/h
Sensor: Nr:Datum:Temp:Abs-Feuchte:Windchill:Wind:
Aussen-T/F 526 03-11-2018 19:45:00 2.7 C 5.59 g/m*3 2.7 C 0 km/h
527 03-11-2018 19:50:00 2.8 C 5.63 g/m*3 2.8 C 0 km/h
528 03-11-2018 19:55:00 2.8 C 5.63 g/m*3 2.8 C 0 km/h
529 03-11-2018 20:00:00 2.8 C 5.63 g/m*3 2.8 C 0 km/h
530 03-11-2018 20:05:00 2.8 C 5.63 g/m*3 2.8 C 0 km/h
531 03-11-2018 20:10:00 2.8 C 5.69 g/m*3 2.8 C 0 km/h
532 03-11-2018 20:15:00 2.9 C 5.73 g/m*3 2.9 C 0 km/h
533 03-11-2018 20:20:00 2.9 C 5.73 g/m*3 2.9 C 0 km/h
534 03-11-2018 20:25:00 2.8 C 5.69 g/m*3 2.8 C 0 km/h
535 03-11-2018 20:30:00 2.8 C 5.63 g/m*3 2.8 C 0 km/h
536 03-11-2018 20:35:00 2.8 C 5.63 g/m*3 2.8 C 0 km/h
537 03-11-2018 20:40:00 2.7 C 5.59 g/m*3 2.7 C 0 km/h
538 03-11-2018 20:45:00 2.7 C 5.59 g/m*3 2.7 C 0 km/h
539 03-11-2018 20:50:00 2.7 C 5.59 g/m*3 2.7 C 0 km/h
540 03-11-2018 20:55:00 2.7 C 5.59 g/m*3 2.7 C 0 km/h
541 03-11-2018 21:00:00 2.7 C 5.65 g/m*3 2.7 C 0 km/h
542 03-11-2018 21:05:00 2.7 C 5.59 g/m*3 2.7 C 0 km/h
543 03-11-2018 21:10:00 2.8 C 5.69 g/m*3 2.8 C 0 km/h
544 03-11-2018 21:15:00 2.8 C 5.69 g/m*3 2.8 C 0 km/h
545 03-11-2018 21:20:00 2.8 C 5.63 g/m*3 2.8 C 0 km/h
546 03-11-2018 21:25:00 2.8 C 5.63 g/m*3 2.8 C 0 km/h
547 03-11-2018 21:30:00 2.8 C 5.63 g/m*3 2.8 C 0 km/h
548 03-11-2018 21:35:00 2.8 C 5.69 g/m*3 2.8 C 0 km/h
549 03-11-2018 21:40:00 2.8 C 5.69 g/m*3 2.8 C 0 km/h
550 03-11-2018 21:45:00 2.7 C 5.59 g/m*3 2.7 C 0 km/h
Sensor: Nr:Datum:Temp:Abs-Feuchte:Windchill:Wind:
Aussen-T/F 551 03-11-2018 21:50:00 2.7 C 5.59 g/m*3 2.7 C 0 km/h
552 03-11-2018 21:55:00 2.7 C 5.59 g/m*3 2.7 C 0 km/h
553 03-11-2018 22:00:00 2.7 C 5.65 g/m*3 2.7 C 0 km/h
554 03-11-2018 22:05:00 2.7 C 5.65 g/m*3 2.7 C 0 km/h
555 03-11-2018 22:10:00 2.7 C 5.65 g/m*3 2.7 C 0 km/h
556 03-11-2018 22:15:00 2.7 C 5.65 g/m*3 2.7 C 0 km/h
557 03-11-2018 22:20:00 2.7 C 5.65 g/m*3 2.7 C 0 km/h
558 03-11-2018 22:25:00 2.7 C 5.65 g/m*3 2.7 C 0 km/h
559 03-11-2018 22:30:00 2.7 C 5.65 g/m*3 2.7 C 0 km/h
560 03-11-2018 22:35:00 2.7 C 5.65 g/m*3 2.7 C 0 km/h
561 03-11-2018 22:40:00 2.6 C 5.61 g/m*3 2.6 C 0 km/h
562 03-11-2018 22:45:00 2.6 C 5.61 g/m*3 2.6 C 0 km/h
563 03-11-2018 22:50:00 2.6 C 5.61 g/m*3 2.6 C 0 km/h
564 03-11-2018 22:55:00 2.6 C 5.61 g/m*3 2.6 C 0 km/h
565 03-11-2018 23:00:00 2.6 C 5.61 g/m*3 2.6 C 0 km/h
566 03-11-2018 23:05:00 2.7 C 5.65 g/m*3 2.7 C 0 km/h
567 03-11-2018 23:10:00 2.7 C 5.65 g/m*3 2.7 C 0 km/h
568 03-11-2018 23:15:00 2.7 C 5.65 g/m*3 2.7 C 0 km/h
569 03-11-2018 23:20:00 2.7 C 5.65 g/m*3 2.7 C 0 km/h
570 03-11-2018 23:25:00 2.7 C 5.65 g/m*3 2.7 C 1.6 km/h
571 03-11-2018 23:30:00 2.7 C 5.65 g/m*3 2.7 C 0 km/h
572 03-11-2018 23:35:00 2.7 C 5.65 g/m*3 2.7 C 0 km/h
573 03-11-2018 23:40:00 2.6 C 5.61 g/m*3 2.6 C 0 km/h
574 03-11-2018 23:45:00 2.6 C 5.61 g/m*3 2.6 C 0 km/h
575 03-11-2018 23:50:00 2.6 C 5.61 g/m*3 2.6 C 0 km/h
Sensor: Nr:Datum:Temp:Abs-Feuchte:Windchill:Wind:
Aussen-T/F 576 03-11-2018 23:55:00 2.6 C 5.61 g/m*3 2.6 C 0 km/h

Legende:
   Min
   Max


Maximal/Minimal-Werte vom 02.11.2018 - 03.11.2018

Sensor Min Max Avg
Temp
(Aussen-T/F)
2.2 °C
03-11-2018  03:20:00
11.7 °C
02-11-2018  12:10:00
6.19 °C
Abs-Feuchte
(Aussen-T/F)
5.41 g/m*3
03-11-2018  03:20:00
8.98 g/m*3
02-11-2018  10:45:00
7.07 g/m*3
Windchill
(Aussen-T/F)
2.2 C
03-11-2018  03:20:00
11.7 C
02-11-2018  12:10:00
6.17 C

Die Daten stammen von einer Davis Vantage Pro 2 Wetter-Station und werden unter Linux mit der Software wview2wettercgi und aufbereitet. Alle Angaben erfolgen ohne Gewähr für ihre Vollständigkeit oder Richtigkeit.
Kontakt: Rainer Krienke krienke@uni-koblenz.de . Meine Webseiten an der Uni Koblenz oder privat.
Version: $Revision: 0.78 $